Time;durP1;ratioP1;P1;durP2;ratioP2;P2;SDS_P1;SDS_P2;PMS_P1;PMS_P2;Temp;Humidity;BMP_temperature;BMP_pressure;BME280_temperature;BME280_humidity;BME280_pressure;Samples;Min_cycle;Max_cycle;Signal;HPM_P1;HPM_P2
2022/08/10 00:01:38;;;;;;;9.63;3.13;;;;;;;22.90;41.17;98835.56;5074026;28;20024;-46
2022/08/10 00:04:04;;;;;;;4.25;2.90;;;;;;;23.08;41.15;98833.31;5073971;28;20024;-48
2022/08/10 00:06:30;;;;;;;8.95;5.43;;;;;;;23.20;40.99;98833.78;5055919;28;20017;-47
2022/08/10 00:08:56;;;;;;;5.05;2.30;;;;;;;23.32;42.19;98836.06;5055937;28;20021;-47
2022/08/10 00:11:22;;;;;;;6.15;3.60;;;;;;;23.49;43.05;98835.69;5073843;28;20379;-48
2022/08/10 00:13:47;;;;;;;9.40;3.95;;;;;;;23.33;43.94;98841.16;5055851;28;20091;-48
2022/08/10 00:16:13;;;;;;;9.27;3.33;;;;;;;22.79;45.40;98842.03;5073847;28;20029;-46
2022/08/10 00:18:39;;;;;;;3.17;2.20;;;;;;;22.50;45.58;98840.06;5055715;28;20032;-46
2022/08/10 00:21:06;;;;;;;12.60;3.28;;;;;;;22.54;45.45;98835.75;5073725;28;20021;-46
2022/08/10 00:23:33;;;;;;;5.15;2.20;;;;;;;22.95;43.91;98834.72;5055705;28;20017;-46
2022/08/10 00:25:59;;;;;;;3.70;1.77;;;;;;;23.06;42.53;98830.94;5073576;28;20021;-46
2022/08/10 00:28:25;;;;;;;4.20;1.70;;;;;;;22.91;42.73;98844.38;5073345;28;20480;-48
2022/08/10 00:30:50;;;;;;;6.30;4.55;;;;;;;22.70;43.17;98843.72;5073435;28;20104;-48
2022/08/10 00:33:16;;;;;;;359.95;265.05;;;;;;;22.56;43.19;98837.34;5073671;28;20055;-48
2022/08/10 00:35:42;;;;;;;31.45;26.45;;;;;;;22.47;43.27;98842.47;5055340;28;20427;-47
2022/08/10 00:38:07;;;;;;;10.73;6.18;;;;;;;22.44;43.06;98838.50;5073282;28;20676;-47
2022/08/10 00:40:33;;;;;;;3.47;3.08;;;;;;;22.42;42.54;98840.63;5055180;28;20032;-48
2022/08/10 00:42:59;;;;;;;5.90;2.30;;;;;;;22.34;42.61;98841.22;5072411;28;20490;-46
2022/08/10 00:45:24;;;;;;;9.00;3.08;;;;;;;22.22;43.01;98836.13;5073196;28;20021;-47
2022/08/10 00:47:50;;;;;;;6.50;3.63;;;;;;;22.19;42.92;98834.00;5073168;28;20036;-48
2022/08/10 00:50:19;;;;;;;4.72;2.10;;;;;;;22.25;42.87;98829.47;5055058;28;20028;-48
2022/08/10 00:52:45;;;;;;;7.00;1.70;;;;;;;22.27;42.23;98830.00;5055036;28;20032;-47
2022/08/10 00:55:11;;;;;;;4.95;1.92;;;;;;;22.29;42.39;98827.84;5073010;28;20104;-47
2022/08/10 00:57:38;;;;;;;5.65;1.80;;;;;;;22.19;42.29;98825.19;5072875;28;20021;-47
2022/08/10 01:00:04;;;;;;;5.28;1.83;;;;;;;22.07;42.21;98826.31;5072860;28;20065;-48
2022/08/10 01:02:32;;;;;;;3.15;1.58;;;;;;;21.98;42.11;98832.47;5072847;28;20444;-47
2022/08/10 01:05:11;;;;;;;4.15;1.50;;;;;;;21.93;41.72;98830.59;5054825;28;20025;-48
2022/08/10 01:08:01;;;;;;;2.95;1.70;;;;;;;21.89;41.82;98832.22;5072846;28;20121;-48
2022/08/10 01:10:57;;;;;;;2.55;1.65;;;;;;;21.79;42.46;98826.91;5072760;28;20028;-46
2022/08/10 01:13:40;;;;;;;7.18;2.00;;;;;;;21.62;43.43;98827.19;5072722;28;20028;-47
2022/08/10 01:16:35;;;;;;;5.18;1.45;;;;;;;21.50;43.91;98827.47;5072601;28;20073;-48
2022/08/10 01:19:46;;;;;;;3.97;1.60;;;;;;;21.44;44.62;98823.22;5054621;28;20516;-47
2022/08/10 01:22:42;;;;;;;4.40;1.60;;;;;;;21.46;44.38;98829.09;5072575;28;20071;-47
2022/08/10 01:25:41;;;;;;;2.00;1.65;;;;;;;21.54;44.49;98817.84;5072397;28;20025;-47
2022/08/10 01:28:45;;;;;;;6.68;2.40;;;;;;;21.71;44.87;98829.06;5054208;28;20045;-47
2022/08/10 01:31:20;;;;;;;5.45;2.38;;;;;;;21.89;44.30;98830.38;5072387;28;20032;-47
2022/08/10 01:34:04;;;;;;;3.00;1.90;;;;;;;21.82;44.14;98829.03;5054390;28;20101;-47
2022/08/10 01:36:43;;;;;;;5.90;1.50;;;;;;;21.71;44.20;98841.59;5054343;28;20102;-47
2022/08/10 01:39:17;;;;;;;11.10;2.10;;;;;;;21.60;44.66;98838.16;5072135;28;20290;-48
2022/08/10 01:41:47;;;;;;;8.23;2.85;;;;;;;21.85;44.32;98844.50;5072206;28;20379;-48
2022/08/10 01:44:17;;;;;;;8.07;2.97;;;;;;;21.93;44.21;98841.28;5072123;28;20028;-48
2022/08/10 01:46:50;;;;;;;4.50;2.80;;;;;;;22.23;43.56;98850.28;5054189;28;20055;-47
2022/08/10 01:49:20;;;;;;;12.32;3.30;;;;;;;22.51;43.03;98843.53;5054098;28;20029;-48
2022/08/10 01:51:51;;;;;;;13.63;4.05;;;;;;;22.63;42.36;98854.69;5071930;28;20024;-47
2022/08/10 01:54:24;;;;;;;6.47;2.40;;;;;;;22.74;42.43;98856.25;5054141;28;20076;-48
2022/08/10 01:56:53;;;;;;;11.02;3.72;;;;;;;22.87;42.00;98848.69;5071956;28;20025;-47
2022/08/10 01:59:29;;;;;;;6.55;2.58;;;;;;;22.93;41.66;98853.72;5053813;28;20021;-48
2022/08/10 02:02:00;;;;;;;5.43;1.98;;;;;;;22.89;41.71;98858.03;5053924;28;20024;-47
2022/08/10 02:04:30;;;;;;;7.30;4.07;;;;;;;22.63;41.96;98857.38;5071920;28;20090;-48
2022/08/10 02:06:59;;;;;;;5.57;2.28;;;;;;;22.27;42.71;98867.41;5072021;28;20453;-48
2022/08/10 02:09:28;;;;;;;2.60;1.92;;;;;;;21.86;43.75;98862.97;5071788;28;20020;-48
2022/08/10 02:11:58;;;;;;;6.80;2.28;;;;;;;21.54;44.58;98863.25;5053695;28;20070;-48
2022/08/10 02:14:30;;;;;;;7.97;3.03;;;;;;;21.31;44.92;98862.69;5053834;28;20399;-47
2022/08/10 02:17:05;;;;;;;20.48;5.55;;;;;;;21.22;44.90;98863.50;5053744;28;20036;-48
2022/08/10 02:19:32;;;;;;;;;;;;;;;21.28;44.78;98867.75;5072138;28;20112;-47
2022/08/10 02:21:58;;;;;;;8.82;2.58;;;;;;;21.38;45.48;98866.97;5053609;28;19913;-47
2022/08/10 02:24:27;;;;;;;7.20;2.13;;;;;;;21.37;44.85;98865.34;5071926;28;20432;-47
2022/08/10 02:26:55;;;;;;;3.70;1.98;;;;;;;21.35;44.82;98868.31;5071632;28;20098;-47
2022/08/10 02:29:22;;;;;;;9.80;3.38;;;;;;;21.33;45.28;98873.91;5071400;28;20044;-47
2022/08/10 02:31:48;;;;;;;5.13;1.85;;;;;;;21.30;44.94;98869.09;5053574;28;20025;-48
2022/08/10 02:34:16;;;;;;;5.03;2.80;;;;;;;21.24;44.99;98861.34;5071538;28;20068;-47
2022/08/10 02:36:50;;;;;;;4.82;2.70;;;;;;;21.15;45.28;98866.44;5071506;28;20063;-46
2022/08/10 02:39:17;;;;;;;5.18;2.13;;;;;;;21.05;45.47;98864.53;5071489;28;20032;-47
2022/08/10 02:41:56;;;;;;;5.68;2.33;;;;;;;20.94;45.26;98869.03;5071457;28;20028;-47
2022/08/10 02:44:28;;;;;;;8.38;3.60;;;;;;;20.85;45.10;98873.31;5071463;28;20060;-47
2022/08/10 02:47:24;;;;;;;3.28;2.03;;;;;;;20.81;45.35;98869.56;5071446;28;20024;-46
2022/08/10 02:50:21;;;;;;;9.35;2.30;;;;;;;20.77;45.63;98870.34;5071387;28;20064;-50
2022/08/10 02:52:51;;;;;;;5.38;2.05;;;;;;;20.68;46.06;98867.38;5070696;28;20421;-50
2022/08/10 02:55:29;;;;;;;4.53;1.80;;;;;;;20.63;46.03;98876.16;5071310;28;20393;-50
2022/08/10 02:57:58;;;;;;;6.97;2.97;;;;;;;20.57;46.10;98877.19;5071318;28;20029;-50
2022/08/10 03:00:26;;;;;;;5.43;2.25;;;;;;;20.59;45.91;98876.97;5071376;28;20017;-50
2022/08/10 03:02:53;;;;;;;2.47;1.58;;;;;;;20.60;45.90;98870.53;5071291;28;20028;-47
2022/08/10 03:05:19;;;;;;;4.63;1.40;;;;;;;20.61;45.96;98878.28;5073019;28;20555;-48
2022/08/10 03:07:52;;;;;;;5.47;1.85;;;;;;;20.59;46.26;98877.75;5074913;28;20086;-50
2022/08/10 03:10:22;;;;;;;5.38;2.15;;;;;;;20.53;46.61;98882.22;5075011;28;20020;-50
2022/08/10 03:12:51;;;;;;;3.17;1.90;;;;;;;20.45;46.91;98881.94;5057425;28;20037;-50
2022/08/10 03:15:19;;;;;;;4.57;1.70;;;;;;;20.39;47.12;98875.78;5074759;28;20094;-50
2022/08/10 03:17:47;;;;;;;3.42;2.25;;;;;;;20.31;47.32;98882.41;5074711;28;20093;-50
2022/08/10 03:20:14;;;;;;;7.63;2.67;;;;;;;20.27;47.59;98881.31;5056849;28;20458;-50
2022/08/10 03:22:42;;;;;;;3.65;1.90;;;;;;;20.39;47.32;98875.78;5056731;28;20097;-49
2022/08/10 03:25:11;;;;;;;13.60;2.55;;;;;;;20.53;47.29;98882.22;5057072;28;20021;-50
2022/08/10 03:27:39;;;;;;;7.75;1.90;;;;;;;20.70;46.81;98875.91;5074483;28;20052;-51
2022/08/10 03:30:06;;;;;;;8.07;2.08;;;;;;;20.77;46.65;98881.81;5074685;28;20060;-49
2022/08/10 03:32:33;;;;;;;4.90;1.70;;;;;;;20.74;46.87;98879.66;5074568;28;20069;-49
2022/08/10 03:34:59;;;;;;;3.67;1.83;;;;;;;20.66;47.17;98877.50;5074567;28;20020;-49
2022/08/10 03:37:26;;;;;;;4.20;1.63;;;;;;;20.52;47.35;98883.31;5074439;28;20031;-49
2022/08/10 03:39:53;;;;;;;3.72;1.80;;;;;;;20.41;47.42;98880.84;5074667;28;20012;-50
2022/08/10 03:42:25;;;;;;;4.18;1.50;;;;;;;20.25;47.63;98888.75;5074370;28;20055;-50
2022/08/10 03:44:52;;;;;;;8.55;2.20;;;;;;;20.11;48.14;98883.09;5074649;28;20017;-50
2022/08/10 03:47:20;;;;;;;7.43;2.03;;;;;;;20.06;48.16;98884.91;5074316;28;20029;-49
2022/08/10 03:49:48;;;;;;;3.03;1.55;;;;;;;20.04;48.16;98882.53;5056340;28;20078;-49
2022/08/10 03:52:18;;;;;;;4.32;1.95;;;;;;;19.95;48.48;98881.38;5056212;28;20086;-51
2022/08/10 03:54:45;;;;;;;5.97;1.83;;;;;;;19.90;48.76;98882.16;5074171;28;20020;-49
2022/08/10 03:57:12;;;;;;;2.22;1.77;;;;;;;19.86;48.86;98885.59;5056100;28;20028;-49
2022/08/10 03:59:38;;;;;;;5.68;1.98;;;;;;;19.87;48.97;98892.53;5074134;28;20401;-50
2022/08/10 04:02:05;;;;;;;7.90;2.35;;;;;;;19.88;49.01;98892.28;5074075;28;20055;-50
2022/08/10 04:04:32;;;;;;;7.68;2.20;;;;;;;20.00;48.83;98902.75;5074044;28;20058;-50
2022/08/10 04:06:59;;;;;;;5.88;2.42;;;;;;;20.04;48.80;98895.84;5055995;28;20016;-50
2022/08/10 04:09:30;;;;;;;6.40;2.00;;;;;;;19.96;48.93;98888.34;5073926;28;20036;-50
2022/08/10 04:11:56;;;;;;;5.35;2.00;;;;;;;19.83;49.12;98892.22;5055902;28;20032;-50
2022/08/10 04:14:21;;;;;;;3.85;2.05;;;;;;;19.76;49.24;98891.66;5055827;28;20553;-50
2022/08/10 04:16:47;;;;;;;5.20;2.20;;;;;;;19.67;49.61;98893.94;5055457;28;20516;-49
2022/08/10 04:19:16;;;;;;;6.43;2.35;;;;;;;19.60;49.70;98893.38;5055642;28;20021;-49
2022/08/10 04:21:50;;;;;;;6.93;1.98;;;;;;;19.47;49.75;98904.44;5055644;28;20102;-49
2022/08/10 04:24:20;;;;;;;4.13;2.17;;;;;;;19.43;50.23;98903.34;5073773;28;20032;-50
2022/08/10 04:26:46;;;;;;;4.20;2.13;;;;;;;19.42;50.26;98904.38;5073614;28;20571;-50
2022/08/10 04:29:13;;;;;;;7.93;2.08;;;;;;;19.51;50.10;98908.19;5055383;28;20056;-50
2022/08/10 04:31:41;;;;;;;6.32;1.88;;;;;;;19.49;49.94;98904.97;5073450;28;20494;-50
2022/08/10 04:34:07;;;;;;;12.38;2.10;;;;;;;19.48;50.21;98906.84;5073474;28;20390;-49
2022/08/10 04:36:34;;;;;;;7.57;1.92;;;;;;;19.52;49.84;98912.47;5073415;28;20364;-49
2022/08/10 04:39:00;;;;;;;5.28;1.90;;;;;;;19.54;49.76;98907.69;5055359;28;20107;-50
2022/08/10 04:41:27;;;;;;;5.22;1.70;;;;;;;19.58;49.63;98906.13;5073175;28;20029;-50
2022/08/10 04:43:53;;;;;;;7.38;1.92;;;;;;;19.56;49.48;98901.06;5073274;28;20016;-49
2022/08/10 04:46:19;;;;;;;6.60;2.28;;;;;;;19.55;49.59;98909.28;5073228;28;20035;-50
2022/08/10 04:48:44;;;;;;;4.00;1.63;;;;;;;19.54;49.30;98913.81;5073159;28;20040;-49
2022/08/10 04:51:17;;;;;;;15.00;3.70;;;;;;;19.62;49.60;98907.22;5038627;28;20033;-50
2022/08/10 04:53:43;;;;;;;8.13;2.97;;;;;;;19.75;49.90;98911.34;5073069;28;20468;-49
2022/08/10 04:56:09;;;;;;;7.00;2.53;;;;;;;19.82;49.58;98919.13;5073048;28;20028;-49
2022/08/10 04:58:35;;;;;;;11.00;2.45;;;;;;;20.06;49.37;98916.88;5072806;28;20036;-50
2022/08/10 05:01:02;;;;;;;17.08;2.95;;;;;;;20.77;48.12;98918.38;5072902;28;20187;-50
2022/08/10 05:03:28;;;;;;;7.40;2.13;;;;;;;21.66;45.77;98927.09;5054913;28;20021;-50
2022/08/10 05:05:53;;;;;;;4.93;1.85;;;;;;;22.26;44.10;98922.78;5072810;28;20027;-50
2022/08/10 05:08:19;;;;;;;4.65;1.90;;;;;;;22.65;42.97;98932.00;5072778;28;20024;-48
2022/08/10 05:10:44;;;;;;;10.13;2.30;;;;;;;23.11;41.98;98927.25;5072559;28;20037;-48
2022/08/10 05:13:10;;;;;;;8.38;2.13;;;;;;;23.61;40.89;98932.56;5072681;28;20119;-48
2022/08/10 05:15:36;;;;;;;9.80;2.17;;;;;;;24.02;39.68;98923.41;5072620;28;20029;-49
2022/08/10 05:18:02;;;;;;;10.65;2.40;;;;;;;24.42;39.26;98930.22;5072554;28;20031;-48
2022/08/10 05:20:27;;;;;;;8.63;2.88;;;;;;;24.79;38.08;98934.13;5054651;28;20025;-49
2022/08/10 05:22:53;;;;;;;6.25;2.33;;;;;;;25.11;37.62;98941.47;5054713;28;20142;-49
2022/08/10 05:25:19;;;;;;;7.30;1.77;;;;;;;25.20;37.08;98938.13;5054500;28;20386;-49
2022/08/10 05:27:46;;;;;;;4.43;1.98;;;;;;;25.15;37.13;98941.69;5071773;28;20032;-49
2022/08/10 05:30:18;;;;;;;12.23;2.30;;;;;;;25.15;37.37;98933.63;5072422;28;20048;-48
2022/08/10 05:32:45;;;;;;;16.13;2.30;;;;;;;25.24;37.23;98945.34;5072418;28;20025;-48
2022/08/10 05:35:11;;;;;;;8.73;2.67;;;;;;;25.36;37.51;98941.44;5054352;28;20028;-48
2022/08/10 05:37:37;;;;;;;8.20;3.05;;;;;;;25.47;37.00;98932.09;5072120;28;20024;-48
2022/08/10 05:40:05;;;;;;;11.73;3.50;;;;;;;25.60;36.44;98939.44;5072234;28;20028;-50
2022/08/10 05:42:31;;;;;;;6.68;1.90;;;;;;;26.33;36.07;98933.66;5054153;28;20036;-50
2022/08/10 05:44:58;;;;;;;9.77;2.65;;;;;;;27.27;34.31;98941.16;5072064;28;20028;-50
2022/08/10 05:47:24;;;;;;;18.00;3.60;;;;;;;28.03;33.18;98932.34;5072052;28;21018;-50
2022/08/10 05:49:51;;;;;;;8.95;1.90;;;;;;;28.65;31.60;98928.78;5054095;28;20016;-49
2022/08/10 05:52:18;;;;;;;7.70;2.20;;;;;;;29.03;30.71;98933.59;5071946;28;20520;-51
2022/08/10 05:54:45;;;;;;;10.18;4.03;;;;;;;29.36;30.09;98930.47;5054010;28;20020;-50
2022/08/10 05:57:13;;;;;;;26.52;2.80;;;;;;;30.00;29.76;98937.03;5071909;28;20031;-50
2022/08/10 05:59:46;;;;;;;23.38;2.97;;;;;;;31.00;28.25;98943.75;5071914;28;20082;-50
2022/08/10 06:02:19;;;;;;;19.08;2.60;;;;;;;31.91;27.28;98937.69;5071880;28;20032;-48
2022/08/10 06:04:46;;;;;;;20.45;3.63;;;;;;;32.63;26.09;98934.63;5071993;28;20488;-50
2022/08/10 06:07:15;;;;;;;9.27;2.17;;;;;;;33.20;25.40;98936.38;5053799;28;20052;-50
2022/08/10 06:09:42;;;;;;;11.80;1.95;;;;;;;33.76;25.23;98935.56;5053797;28;20025;-50
2022/08/10 06:12:10;;;;;;;6.28;1.90;;;;;;;34.20;24.46;98932.00;5071676;28;20056;-49
2022/08/10 06:17:23;;;;;;;25.52;2.55;;;;;;;34.33;23.74;98933.50;5071962;28;20082;-49
2022/08/10 06:19:49;;;;;;;13.27;2.70;;;;;;;34.70;23.35;98940.59;5071694;28;20417;-46
2022/08/10 06:22:16;;;;;;;14.20;2.30;;;;;;;35.10;22.63;98934.06;5053646;28;20032;-46
2022/08/10 06:24:42;;;;;;;12.07;2.30;;;;;;;35.56;22.31;98940.44;5071608;28;20024;-46
2022/08/10 06:27:08;;;;;;;3.05;1.73;;;;;;;36.19;21.45;98927.53;5071673;28;20437;-49
2022/08/10 06:29:39;;;;;;;12.60;2.28;;;;;;;36.75;20.78;98932.28;5053429;28;20051;-49
2022/08/10 06:32:07;;;;;;;34.28;3.92;;;;;;;37.04;20.68;98929.13;5071627;28;20051;-48
2022/08/10 06:34:37;;;;;;;51.95;6.03;;;;;;;37.16;20.23;98935.16;5071550;28;20024;-49
2022/08/10 06:37:05;;;;;;;26.67;4.50;;;;;;;37.16;20.09;98928.91;5071598;28;20021;-49
2022/08/10 06:39:31;;;;;;;24.33;3.83;;;;;;;37.03;19.41;98933.81;5073328;28;20024;-48
2022/08/10 06:42:09;;;;;;;17.73;4.25;;;;;;;36.74;20.06;98929.91;5075554;28;20021;-48
2022/08/10 06:44:47;;;;;;;12.77;2.97;;;;;;;36.91;19.25;98929.38;5075663;28;20024;-48
2022/08/10 06:47:17;;;;;;;17.65;3.15;;;;;;;36.63;19.57;98929.78;5057528;28;20030;-49
2022/08/10 06:49:45;;;;;;;19.90;3.35;;;;;;;36.92;19.45;98924.69;5075490;28;20108;-48
2022/08/10 06:52:15;;;;;;;41.45;5.20;;;;;;;36.78;19.51;98926.09;5075437;28;20020;-48
2022/08/10 06:54:43;;;;;;;52.45;6.05;;;;;;;36.83;19.43;98927.69;5057354;28;20021;-48
2022/08/10 06:57:12;;;;;;;131.50;12.27;;;;;;;37.20;19.36;98927.00;5057308;28;20104;-48
2022/08/10 06:59:43;;;;;;;83.38;7.55;;;;;;;37.71;18.80;98929.16;5075116;28;20024;-48
2022/08/10 07:02:14;;;;;;;53.13;7.30;;;;;;;38.21;18.07;98917.84;5075247;28;20108;-47
2022/08/10 07:04:59;;;;;;;150.95;16.05;;;;;;;38.03;19.00;98922.38;5075184;28;20052;-47
2022/08/10 07:07:28;;;;;;;94.78;8.88;;;;;;;37.98;18.25;98920.78;5075119;28;20099;-47
2022/08/10 07:09:57;;;;;;;61.00;5.90;;;;;;;37.92;18.37;98917.59;5075074;28;20111;-48
2022/08/10 07:12:25;;;;;;;59.83;6.80;;;;;;;37.60;18.28;98914.56;5074971;28;20051;-49
2022/08/10 07:14:52;;;;;;;49.17;5.25;;;;;;;36.92;19.26;98924.69;5057072;28;20078;-48
2022/08/10 07:17:24;;;;;;;52.97;5.53;;;;;;;37.21;19.14;98916.84;5074895;28;20032;-49
2022/08/10 07:20:01;;;;;;;52.45;5.68;;;;;;;36.81;19.39;98921.81;5057412;28;20028;-46
2022/08/10 07:22:30;;;;;;;13.85;3.05;;;;;;;36.38;19.55;98913.78;5056942;28;20039;-46
2022/08/10 07:24:58;;;;;;;40.45;5.93;;;;;;;36.11;20.33;98917.59;5075036;28;20025;-47
2022/08/10 07:27:26;;;;;;;23.23;3.70;;;;;;;36.13;20.14;98910.63;5056706;28;20398;-48
2022/08/10 07:29:54;;;;;;;26.23;3.53;;;;;;;36.57;19.79;98909.34;5056505;28;20048;-48
2022/08/10 07:32:22;;;;;;;21.13;3.15;;;;;;;37.20;19.26;98909.81;5074646;28;20029;-48
2022/08/10 07:34:52;;;;;;;35.75;4.65;;;;;;;38.12;18.17;98909.16;5074553;28;20031;-49
2022/08/10 07:37:20;;;;;;;15.38;2.33;;;;;;;39.09;16.81;98916.03;5074578;28;20502;-50
2022/08/10 07:39:48;;;;;;;10.85;2.40;;;;;;;39.98;16.40;98908.38;5074434;28;20041;-52
2022/08/10 07:42:17;;;;;;;15.07;2.58;;;;;;;40.50;15.62;98909.50;5040071;28;20494;-51
2022/08/10 07:44:45;;;;;;;19.13;2.60;;;;;;;41.19;14.82;98910.06;5074474;28;20490;-52
2022/08/10 07:47:16;;;;;;;24.83;3.10;;;;;;;41.68;14.35;98905.47;5074333;28;20506;-52
2022/08/10 07:49:44;;;;;;;26.63;3.40;;;;;;;41.95;13.98;98907.63;5074446;28;20486;-50
2022/08/10 07:52:10;;;;;;;20.15;2.55;;;;;;;42.21;13.88;98910.97;5055595;28;20068;-49
2022/08/10 07:54:42;;;;;;;25.48;3.72;;;;;;;42.51;14.20;98915.81;5074222;28;20037;-52
2022/08/10 07:57:16;;;;;;;25.20;3.28;;;;;;;42.49;14.05;98907.16;5074141;28;20032;-51
2022/08/10 07:59:47;;;;;;;20.90;3.67;;;;;;;42.54;14.02;98916.94;5056195;28;20052;-51
2022/08/10 08:02:27;;;;;;;23.90;3.20;;;;;;;42.78;13.75;98918.63;5074133;28;20025;-52
2022/08/10 08:04:58;;;;;;;15.20;3.20;;;;;;;42.95;13.14;98914.13;5074347;28;20024;-51
2022/08/10 08:07:26;;;;;;;12.98;2.30;;;;;;;42.84;13.42;98913.44;5073879;28;20040;-50
2022/08/10 08:09:55;;;;;;;20.90;2.67;;;;;;;42.55;13.45;98915.78;5073954;28;20490;-48
2022/08/10 08:12:23;;;;;;;11.10;2.20;;;;;;;42.36;13.76;98915.16;5055826;28;20078;-50
2022/08/10 08:14:51;;;;;;;17.98;2.65;;;;;;;42.33;14.30;98917.94;5055912;28;20505;-50
2022/08/10 08:17:18;;;;;;;18.73;2.92;;;;;;;41.92;14.19;98906.47;5073801;28;20029;-51
2022/08/10 08:19:48;;;;;;;26.20;3.47;;;;;;;42.05;14.08;98914.25;5073733;28;20098;-50
2022/08/10 08:22:18;;;;;;;30.90;3.88;;;;;;;41.96;13.98;98917.47;5073924;28;20028;-51
2022/08/10 08:24:45;;;;;;;19.50;3.05;;;;;;;41.62;14.18;98914.59;5055717;28;20033;-48
2022/08/10 08:27:15;;;;;;;18.48;2.42;;;;;;;41.48;14.43;98916.22;5073840;28;20082;-51
2022/08/10 08:29:44;;;;;;;14.38;3.13;;;;;;;41.58;14.36;98916.56;5073365;28;20045;-49
2022/08/10 08:32:12;;;;;;;10.65;2.10;;;;;;;41.63;13.94;98913.38;5073521;28;20174;-51
2022/08/10 08:34:41;;;;;;;24.55;3.88;;;;;;;41.12;14.65;98915.59;5073468;28;20024;-49
2022/08/10 08:37:09;;;;;;;20.85;2.72;;;;;;;41.66;14.34;98927.13;5073405;28;20056;-51
2022/08/10 08:39:35;;;;;;;19.08;2.28;;;;;;;42.53;13.77;98918.16;5073333;28;20498;-50
2022/08/10 08:42:43;;;;;;;21.98;3.10;;;;;;;43.11;12.91;98910.78;5073265;28;20139;-50
2022/08/10 08:45:09;;;;;;;7.25;1.60;;;;;;;42.67;12.93;98921.53;5062380;28;20025;-50
2022/08/10 08:48:22;;;;;;;12.45;1.73;;;;;;;42.46;13.47;98913.47;5073258;28;20050;-51
2022/08/10 08:51:23;;;;;;;16.50;2.15;;;;;;;43.17;13.23;98919.38;5073227;28;20104;-50
2022/08/10 08:54:18;;;;;;;21.10;3.55;;;;;;;43.46;13.50;98917.00;5072999;28;20094;-51
2022/08/10 08:57:07;;;;;;;6.13;1.40;;;;;;;43.66;12.60;98920.63;5073071;28;20052;-51
2022/08/10 09:00:12;;;;;;;46.95;5.38;;;;;;;44.43;12.57;98912.66;5073006;28;20499;-50
2022/08/10 09:03:08;;;;;;;16.55;2.22;;;;;;;44.28;12.43;98907.38;5071851;28;20600;-51
2022/08/10 09:05:55;;;;;;;7.68;1.88;;;;;;;44.21;12.17;98909.50;5072849;28;20028;-50
2022/08/10 09:08:30;;;;;;;12.18;1.95;;;;;;;45.04;12.16;98909.50;5072806;28;20050;-50
2022/08/10 09:11:18;;;;;;;8.73;1.92;;;;;;;45.62;11.58;98894.31;5073090;28;20028;-50
2022/08/10 09:13:56;;;;;;;9.80;2.35;;;;;;;45.95;11.53;98900.66;5072896;28;20382;-49
2022/08/10 09:16:42;;;;;;;23.88;1.80;;;;;;;46.40;11.06;98890.78;5054706;28;20406;-49
2022/08/10 09:19:32;;;;;;;18.25;1.92;;;;;;;46.06;11.26;98888.53;5054632;28;20047;-51
2022/08/10 09:22:05;;;;;;;12.57;2.30;;;;;;;46.01;11.42;98887.81;5054624;28;20029;-50
2022/08/10 09:25:09;;;;;;;14.18;1.42;;;;;;;46.29;11.05;98891.09;5109740;27;20395;-51
2022/08/10 09:27:44;;;;;;;141.82;11.23;;;;;;;46.21;11.35;98887.72;5109647;28;20158;-50
2022/08/10 09:30:15;;;;;;;26.80;2.60;;;;;;;46.11;11.18;98877.69;5109906;28;20118;-50
2022/08/10 09:32:50;;;;;;;8.20;1.63;;;;;;;46.69;10.71;98879.69;5109668;28;20028;-49
2022/08/10 09:35:56;;;;;;;10.82;2.17;;;;;;;47.70;10.27;98876.63;5109770;28;20371;-51
2022/08/10 09:38:40;;;;;;;6.68;1.45;;;;;;;48.30;10.14;98873.75;5077545;28;20401;-52
2022/08/10 09:41:24;;;;;;;3.47;1.38;;;;;;;48.58;9.97;98865.56;5109344;28;20020;-52
2022/08/10 09:44:08;;;;;;;9.52;1.70;;;;;;;48.26;10.10;98870.31;5109356;28;20104;-51
2022/08/10 09:47:11;;;;;;;6.32;1.80;;;;;;;47.49;10.41;98866.94;5109337;28;20028;-51
2022/08/10 09:49:58;;;;;;;12.88;1.40;;;;;;;47.14;10.23;98869.63;5109219;28;20027;-49
2022/08/10 09:52:51;;;;;;;8.50;1.55;;;;;;;47.07;10.49;98853.94;5109181;28;20116;-50
2022/08/10 09:55:45;;;;;;;10.77;1.77;;;;;;;47.69;10.17;98863.91;5109214;28;20028;-51
2022/08/10 09:58:44;;;;;;;8.13;1.63;;;;;;;48.30;10.01;98856.25;5109113;28;20112;-52
2022/08/10 10:01:28;;;;;;;5.97;1.42;;;;;;;48.87;9.45;98858.94;5109015;28;20767;-51
2022/08/10 10:04:15;;;;;;;8.63;1.55;;;;;;;48.92;8.98;98858.34;5107697;28;20031;-52
2022/08/10 10:06:49;;;;;;;5.85;1.30;;;;;;;48.64;9.10;98855.41;5109002;28;20554;-52
2022/08/10 10:09:47;;;;;;;6.00;1.27;;;;;;;48.58;9.21;98848.84;5108914;28;20024;-51
2022/08/10 10:12:40;;;;;;;10.10;1.90;;;;;;;48.44;9.52;98854.97;5109089;28;20031;-50
2022/08/10 10:15:36;;;;;;;23.50;3.47;;;;;;;48.40;9.52;98855.88;5107554;28;20504;-49
2022/08/10 10:18:08;;;;;;;4.97;1.30;;;;;;;48.11;9.54;98844.19;5108746;28;20033;-52
2022/08/10 10:21:08;;;;;;;8.18;1.77;;;;;;;47.46;10.13;98845.59;5108779;28;20103;-50
2022/08/10 10:23:46;;;;;;;10.45;1.88;;;;;;;47.26;10.24;98837.50;5108322;28;20050;-51
2022/08/10 10:26:47;;;;;;;3.63;1.50;;;;;;;46.41;10.68;98842.38;5108602;28;20477;-51
2022/08/10 10:29:34;;;;;;;26.35;3.15;;;;;;;46.39;10.77;98837.25;5103895;28;20035;-49
2022/08/10 10:32:38;;;;;;;13.95;2.67;;;;;;;46.40;10.68;98832.47;5108425;28;20059;-50
2022/08/10 10:35:25;;;;;;;10.88;2.67;;;;;;;46.26;10.62;98835.66;5100039;28;20026;-50
2022/08/10 10:37:53;;;;;;;10.07;2.40;;;;;;;46.33;10.69;98838.25;5094844;28;20028;-51
2022/08/10 10:40:23;;;;;;;10.82;2.08;;;;;;;46.02;11.02;98833.91;5094729;28;20024;-49
2022/08/10 10:42:56;;;;;;;15.68;1.92;;;;;;;46.30;10.61;98841.88;5076506;28;20024;-50
2022/08/10 10:45:38;;;;;;;11.15;1.60;;;;;;;46.56;10.17;98837.22;5094935;28;20401;-48
2022/08/10 10:48:22;;;;;;;6.45;1.42;;;;;;;46.96;9.95;98837.59;5094563;28;20031;-51
2022/08/10 10:50:54;;;;;;;10.82;2.15;;;;;;;46.44;10.39;98833.94;5094560;28;20065;-51
2022/08/10 10:53:45;;;;;;;12.48;1.83;;;;;;;46.24;10.50;98839.66;5094787;28;20036;-50
2022/08/10 10:56:34;;;;;;;16.27;2.42;;;;;;;46.00;10.50;98827.22;5094414;28;20434;-49
2022/08/10 10:59:24;;;;;;;9.77;1.58;;;;;;;45.20;10.82;98831.16;5094365;28;20024;-51
2022/08/10 11:02:01;;;;;;;7.95;1.50;;;;;;;45.78;10.36;98829.78;5094380;28;20052;-51
2022/08/10 11:05:09;;;;;;;7.57;1.42;;;;;;;46.18;9.94;98830.31;5094257;28;20028;-50
2022/08/10 11:07:45;;;;;;;20.70;3.30;;;;;;;46.00;10.60;98830.00;5071623;28;20032;-50
2022/08/10 11:10:20;;;;;;;12.15;1.60;;;;;;;45.77;10.69;98823.47;5094167;28;20497;-50
2022/08/10 11:12:56;;;;;;;10.38;1.70;;;;;;;46.30;10.40;98828.78;5094177;28;20028;-51
2022/08/10 11:16:15;;;;;;;17.25;3.17;;;;;;;46.18;10.69;98819.19;5092783;28;20513;-50
2022/08/10 11:18:53;;;;;;;19.25;3.08;;;;;;;45.62;11.11;98822.22;5031686;28;20042;-51
2022/08/10 11:21:56;;;;;;;8.63;2.00;;;;;;;45.59;10.52;98823.88;5031549;28;20554;-50
2022/08/10 11:24:35;;;;;;;6.28;1.48;;;;;;;45.68;10.47;98823.28;5031293;28;20049;-50
2022/08/10 11:27:20;;;;;;;8.23;1.92;;;;;;;46.01;10.56;98810.13;5031387;28;20508;-49
2022/08/10 11:30:03;;;;;;;22.63;3.13;;;;;;;45.83;10.66;98810.63;5014851;28;20029;-49
2022/08/10 11:32:33;;;;;;;13.57;2.20;;;;;;;45.99;10.60;98803.47;5014766;28;20037;-49
2022/08/10 11:35:17;;;;;;;11.15;2.40;;;;;;;45.67;10.90;98799.56;5031262;28;20045;-49
2022/08/10 11:37:48;;;;;;;8.80;1.65;;;;;;;45.05;10.90;98802.22;5031277;28;20180;-50
2022/08/10 11:40:33;;;;;;;10.10;1.65;;;;;;;44.93;11.42;98800.13;5031212;28;20120;-51
2022/08/10 11:43:20;;;;;;;16.17;2.45;;;;;;;44.89;11.37;98794.66;5031176;28;20029;-50
2022/08/10 11:45:53;;;;;;;36.40;4.63;;;;;;;45.02;11.07;98795.56;5030517;28;20045;-50
2022/08/10 11:48:25;;;;;;;9.18;1.48;;;;;;;44.75;10.98;98792.19;5014251;28;20037;-51
2022/08/10 11:50:56;;;;;;;5.15;1.50;;;;;;;44.81;11.05;98782.16;5031035;28;20461;-50
2022/08/10 11:53:48;;;;;;;14.43;2.13;;;;;;;45.18;10.51;98785.72;5047070;28;20040;-50
2022/08/10 11:56:23;;;;;;;7.57;1.40;;;;;;;45.22;10.61;98781.63;5093136;28;20024;-49
2022/08/10 12:01:35;;;;;;;3.88;1.25;;;;;;;45.76;10.13;98773.97;5093197;28;20107;-50
2022/08/10 12:04:06;;;;;;;19.33;3.05;;;;;;;45.47;10.76;98771.94;5093035;28;20028;-51
2022/08/10 12:06:36;;;;;;;9.50;1.30;;;;;;;45.01;10.88;98768.28;5093041;28;20028;-50